Climatologie pour Saint-Brevin les Pins
Jour • Résumé pour avril 30, 2017 Système :  Métrique    Anglais   Mixte
« - 1 jour
+ 1 jour »
Jour Semaine Mois Année Personnalisé
  Maximum : Minimum : Moyenne :
Température sous abri : 14.2 °C 7.7 °C 10.7 °C
Point de rosée : 12.6 °C 2.8 °C 7.4 °C
Humidité : 95 % 55 % 81 %
Vitesse du vent : 32.2 km/h 0.0 km/h 9.1 km/h
Rafale : 51.5 km/h - -
Direction :- - SSW
Pression : 1004.6 hPa 996.5 hPa -
Précipitations : 14.5 mm    
Historical Graphs
 
 
Tableau de données pour avril 30, 2017
Heure Tempé Pt rosée Pression Vent Vitesse Rafale Humidité Taux pluie (/hr) Soleil
00:05 8.1 °C 4.1 °C 1004.6 hPa Calm   3.2 km/h 76 % 0.0 mm 0 W/m2
00:10 8.0 °C 4.2 °C 1004.6 hPa Calm   3.2 km/h 77 % 0.0 mm 0 W/m2
00:15 7.9 °C 4.3 °C 1004.3 hPa ESE 3.2 km/h 3.2 km/h 78 % 0.0 mm 0 W/m2
00:20 8.4 °C 4.2 °C 1004.3 hPa Calm   4.8 km/h 75 % 0.0 mm 0 W/m2
00:25 8.6 °C 4.2 °C 1004.3 hPa Calm   6.4 km/h 74 % 0.0 mm 0 W/m2
00:30 8.8 °C 4.1 °C 1004.3 hPa SSE 3.2 km/h 8.0 km/h 72 % 0.0 mm 0 W/m2
00:35 9.3 °C 3.9 °C 1004.3 hPa SE 4.8 km/h 8.0 km/h 69 % 0.0 mm 0 W/m2
00:40 9.9 °C 3.8 °C 1004.3 hPa SE 4.8 km/h 9.7 km/h 66 % 0.0 mm 0 W/m2
00:50 10.7 °C 3.7 °C 1003.9 hPa SE 4.8 km/h 11.3 km/h 62 % 0.0 mm 0 W/m2
00:55 11.1 °C 3.6 °C 1003.9 hPa SSE 6.4 km/h 17.7 km/h 60 % 0.0 mm 0 W/m2
01:00 11.3 °C 3.5 °C 1003.9 hPa SE 8.0 km/h 17.7 km/h 59 % 0.0 mm 0 W/m2
01:05 11.5 °C 3.5 °C 1003.9 hPa SSE 6.4 km/h 12.9 km/h 58 % 0.0 mm 0 W/m2
01:10 11.6 °C 3.4 °C 1003.9 hPa SE 4.8 km/h 9.7 km/h 57 % 0.0 mm 0 W/m2
01:15 11.7 °C 3.4 °C 1003.9 hPa SSE 11.3 km/h 11.3 km/h 57 % 0.0 mm 0 W/m2
01:20 11.6 °C 3.4 °C 1003.9 hPa SE 4.8 km/h 12.9 km/h 57 % 0.0 mm 0 W/m2
01:25 11.6 °C 3.1 °C 1003.6 hPa SE 6.4 km/h 12.9 km/h 56 % 0.0 mm 0 W/m2
01:35 11.6 °C 3.1 °C 1003.6 hPa SSE 4.8 km/h 11.3 km/h 56 % 0.0 mm 0 W/m2
01:40 11.5 °C 3.0 °C 1003.6 hPa SSE 1.6 km/h 12.9 km/h 56 % 0.0 mm 0 W/m2
01:45 11.5 °C 3.0 °C 1003.6 hPa SSE 1.6 km/h 12.9 km/h 56 % 0.0 mm 0 W/m2
01:50 11.4 °C 2.9 °C 1003.3 hPa SSE 4.8 km/h 12.9 km/h 56 % 0.0 mm 0 W/m2
01:55 11.4 °C 3.0 °C 1003.3 hPa SSE 4.8 km/h 12.9 km/h 56 % 0.0 mm 0 W/m2
02:00 11.4 °C 3.0 °C 1003.3 hPa SSE 3.2 km/h 12.9 km/h 56 % 0.0 mm 0 W/m2
02:05 11.3 °C 2.9 °C 1002.9 hPa SE 3.2 km/h 12.9 km/h 56 % 0.0 mm 0 W/m2
02:10 11.2 °C 3.0 °C 1002.9 hPa SE 3.2 km/h 11.3 km/h 57 % 0.0 mm 0 W/m2
02:20 11.4 °C 2.9 °C 1002.9 hPa SE 4.8 km/h 14.5 km/h 56 % 0.0 mm 0 W/m2
02:25 11.4 °C 2.9 °C 1002.6 hPa SSE 1.6 km/h 14.5 km/h 56 % 0.0 mm 0 W/m2
02:30 11.4 °C 3.0 °C 1002.6 hPa SSE 4.8 km/h 14.5 km/h 56 % 0.0 mm 0 W/m2
02:35 11.4 °C 3.0 °C 1002.6 hPa SSE 4.8 km/h 14.5 km/h 56 % 0.0 mm 0 W/m2
02:40 11.5 °C 3.0 °C 1002.3 hPa SE 3.2 km/h 12.9 km/h 56 % 0.0 mm 0 W/m2
02:45 11.5 °C 3.0 °C 1002.3 hPa SE 8.0 km/h 14.5 km/h 56 % 0.0 mm 0 W/m2
02:50 11.6 °C 2.8 °C 1002.3 hPa SSE 6.4 km/h 14.5 km/h 55 % 0.0 mm 0 W/m2
02:55 11.6 °C 2.9 °C 1002.3 hPa SE 6.4 km/h 19.3 km/h 55 % 0.0 mm 0 W/m2
03:05 11.8 °C 3.0 °C 1001.9 hPa South 11.3 km/h 19.3 km/h 55 % 0.0 mm 0 W/m2
03:10 11.8 °C 3.1 °C 1001.9 hPa SSE 3.2 km/h 19.3 km/h 55 % 0.0 mm 0 W/m2
03:15 11.9 °C 3.1 °C 1001.6 hPa SSE 9.7 km/h 17.7 km/h 55 % 0.0 mm 0 W/m2
03:20 11.9 °C 3.1 °C 1001.6 hPa SSE 4.8 km/h 19.3 km/h 55 % 0.0 mm 0 W/m2
03:25 11.9 °C 3.1 °C 1001.6 hPa South 11.3 km/h 19.3 km/h 55 % 0.0 mm 0 W/m2
03:30 11.9 °C 3.1 °C 1001.6 hPa SSE 11.3 km/h 19.3 km/h 55 % 0.0 mm 0 W/m2
03:35 11.9 °C 3.1 °C 1001.6 hPa SSE 4.8 km/h 19.3 km/h 55 % 0.0 mm 0 W/m2
03:40 11.9 °C 3.4 °C 1001.6 hPa SSE 8.0 km/h 16.1 km/h 56 % 0.0 mm 0 W/m2
03:50 12.1 °C 3.5 °C 1001.6 hPa SSE 8.0 km/h 17.7 km/h 56 % 0.0 mm 0 W/m2
03:55 12.1 °C 3.6 °C 1001.2 hPa SSE 9.7 km/h 19.3 km/h 56 % 0.0 mm 0 W/m2
04:00 12.2 °C 3.9 °C 1001.2 hPa SSE 8.0 km/h 19.3 km/h 57 % 0.0 mm 0 W/m2
04:05 12.2 °C 3.9 °C 1001.2 hPa SE 8.0 km/h 14.5 km/h 57 % 0.0 mm 0 W/m2
04:10 12.3 °C 4.0 °C 1000.9 hPa SSE 4.8 km/h 16.1 km/h 57 % 0.0 mm 0 W/m2
04:15 12.4 °C 4.3 °C 1000.9 hPa SSE 11.3 km/h 17.7 km/h 58 % 0.0 mm 0 W/m2
04:20 12.4 °C 4.4 °C 1000.9 hPa SSE 11.3 km/h 17.7 km/h 58 % 0.0 mm 0 W/m2
04:25 12.6 °C 4.5 °C 1000.9 hPa SSE 14.5 km/h 17.7 km/h 58 % 0.0 mm 0 W/m2
04:35 12.7 °C 4.6 °C 1000.9 hPa South 11.3 km/h 20.9 km/h 58 % 0.0 mm 0 W/m2
04:40 12.7 °C 4.6 °C 1000.6 hPa South 9.7 km/h 20.9 km/h 58 % 0.0 mm 0 W/m2
04:45 12.7 °C 4.7 °C 1000.6 hPa SSW 8.0 km/h 19.3 km/h 58 % 0.0 mm 0 W/m2
04:50 12.7 °C 4.7 °C 1000.6 hPa SE 11.3 km/h 19.3 km/h 58 % 0.0 mm 0 W/m2
04:55 12.7 °C 4.6 °C 1000.2 hPa SSE 6.4 km/h 17.7 km/h 58 % 0.0 mm 0 W/m2
05:00 12.7 °C 4.6 °C 1000.2 hPa SSE 12.9 km/h 17.7 km/h 58 % 0.0 mm 0 W/m2
05:05 12.6 °C 4.8 °C 1000.2 hPa SE 11.3 km/h 17.7 km/h 59 % 0.0 mm 0 W/m2
05:10 12.6 °C 4.8 °C 999.9 hPa SSE 4.8 km/h 14.5 km/h 59 % 0.0 mm 0 W/m2
05:20 12.1 °C 5.9 °C 1000.2 hPa South 11.3 km/h 14.5 km/h 66 % 0.0 mm 0 W/m2
05:25 11.8 °C 6.3 °C 1000.2 hPa SE 8.0 km/h 17.7 km/h 69 % 0.0 mm 0 W/m2
05:30 11.6 °C 6.7 °C 999.9 hPa South 8.0 km/h 17.7 km/h 72 % 0.5 mm 0 W/m2
05:35 11.0 °C 7.3 °C 999.9 hPa SE 6.4 km/h 17.7 km/h 78 % 0.5 mm 0 W/m2
05:40 10.6 °C 7.7 °C 999.5 hPa SE 6.4 km/h 14.5 km/h 82 % 0.8 mm 0 W/m2
05:45 10.3 °C 7.7 °C 999.5 hPa ESE 1.6 km/h 9.7 km/h 84 % 0.8 mm 0 W/m2
05:50 10.2 °C 7.9 °C 999.5 hPa SE 1.6 km/h 9.7 km/h 86 % 0.8 mm 0 W/m2
05:55 10.2 °C 7.9 °C 999.2 hPa SSE 4.8 km/h 9.7 km/h 86 % 0.8 mm 0 W/m2
06:05 10.3 °C 7.9 °C 999.5 hPa SSE 1.6 km/h 9.7 km/h 85 % 0.8 mm 0 W/m2
06:10 10.3 °C 7.7 °C 999.2 hPa SSE 1.6 km/h 9.7 km/h 84 % 0.8 mm 0 W/m2
06:15 10.3 °C 7.7 °C 999.2 hPa SSE 6.4 km/h 9.7 km/h 84 % 0.8 mm 0 W/m2
06:20 10.4 °C 7.6 °C 999.2 hPa SSE 3.2 km/h 9.7 km/h 83 % 0.8 mm 0 W/m2
06:25 10.3 °C 7.9 °C 999.2 hPa SW 1.6 km/h 9.7 km/h 85 % 0.8 mm 0 W/m2
06:30 10.0 °C 8.1 °C 999.5 hPa Calm   4.8 km/h 88 % 0.3 mm 0 W/m2
06:35 9.7 °C 8.2 °C 999.5 hPa Calm   3.2 km/h 90 % 0.3 mm 0 W/m2
06:40 9.6 °C 8.2 °C 999.5 hPa Calm   4.8 km/h 91 % 0.0 mm 0 W/m2
06:50 9.6 °C 8.2 °C 999.9 hPa West 1.6 km/h 9.7 km/h 91 % 0.5 mm 0 W/m2
06:55 9.6 °C 8.0 °C 999.9 hPa SW 8.0 km/h 16.1 km/h 90 % 1.0 mm 0 W/m2
07:00 9.6 °C 8.0 °C 999.5 hPa Calm   16.1 km/h 90 % 1.5 mm 0 W/m2
07:05 9.5 °C 8.1 °C 999.5 hPa SW 3.2 km/h 9.7 km/h 91 % 1.5 mm 0 W/m2
07:10 9.6 °C 8.2 °C 999.9 hPa West 3.2 km/h 8.0 km/h 91 % 2.3 mm 0 W/m2
07:15 9.6 °C 8.3 °C 999.9 hPa SSW 6.4 km/h 12.9 km/h 92 % 4.1 mm 0 W/m2
07:20 9.6 °C 8.3 °C 999.5 hPa SSW 4.8 km/h 12.9 km/h 92 % 5.1 mm 0 W/m2
07:25 9.6 °C 8.3 °C 999.5 hPa SSE 6.4 km/h 16.1 km/h 92 % 5.1 mm 0 W/m2
07:35 9.4 °C 8.2 °C 999.2 hPa SE 8.0 km/h 11.3 km/h 92 % 5.6 mm 5 W/m2
07:40 9.4 °C 8.3 °C 999.2 hPa SE 3.2 km/h 8.0 km/h 93 % 5.6 mm 0 W/m2
07:45 9.3 °C 8.3 °C 998.9 hPa Calm   8.0 km/h 93 % 5.3 mm 0 W/m2
07:50 9.3 °C 8.3 °C 998.9 hPa Calm   4.8 km/h 93 % 5.1 mm 0 W/m2
07:55 9.3 °C 8.4 °C 998.9 hPa Calm   4.8 km/h 94 % 4.8 mm 0 W/m2
08:00 9.3 °C 8.4 °C 998.9 hPa Calm   4.8 km/h 94 % 4.6 mm 0 W/m2
08:05 9.3 °C 8.4 °C 998.9 hPa Calm   4.8 km/h 94 % 4.6 mm 0 W/m2
08:10 9.3 °C 8.4 °C 998.5 hPa Calm   1.6 km/h 94 % 3.6 mm 5 W/m2
08:20 9.3 °C 8.5 °C 998.5 hPa SE 1.6 km/h 3.2 km/h 95 % 1.8 mm 11 W/m2
08:25 9.3 °C 8.5 °C 998.5 hPa Calm   8.0 km/h 95 % 1.5 mm 11 W/m2
08:30 9.2 °C 8.5 °C 998.5 hPa SE 8.0 km/h 8.0 km/h 95 % 1.3 mm 12 W/m2
08:35 9.2 °C 8.5 °C 998.2 hPa SE 3.2 km/h 8.0 km/h 95 % 1.3 mm 21 W/m2
08:40 9.2 °C 8.5 °C 997.9 hPa SE 6.4 km/h 11.3 km/h 95 % 1.3 mm 26 W/m2
08:45 9.3 °C 8.5 °C 998.2 hPa SE 1.6 km/h 12.9 km/h 95 % 1.3 mm 12 W/m2
08:50 9.3 °C 8.5 °C 998.2 hPa SE 4.8 km/h 12.9 km/h 95 % 1.0 mm 21 W/m2
08:55 9.3 °C 8.5 °C 998.2 hPa SSE 3.2 km/h 11.3 km/h 95 % 0.8 mm 26 W/m2
09:05 9.4 °C 8.5 °C 997.9 hPa SE 3.2 km/h 9.7 km/h 94 % 0.5 mm 30 W/m2
09:10 9.4 °C 8.5 °C 997.9 hPa SSE 4.8 km/h 14.5 km/h 94 % 0.5 mm 35 W/m2
09:15 9.5 °C 8.6 °C 997.9 hPa SSE 1.6 km/h 14.5 km/h 94 % 0.3 mm 81 W/m2
09:20 9.6 °C 8.7 °C 997.5 hPa Calm   8.0 km/h 94 % 0.0 mm 107 W/m2
09:25 9.8 °C 8.9 °C 997.5 hPa Calm   6.4 km/h 94 % 0.0 mm 135 W/m2
09:30 9.9 °C 9.0 °C 997.5 hPa SSW 3.2 km/h 9.7 km/h 94 % 0.0 mm 56 W/m2
09:35 9.9 °C 8.8 °C 997.5 hPa SSW 4.8 km/h 9.7 km/h 93 % 0.0 mm 33 W/m2
09:40 9.9 °C 8.9 °C 997.5 hPa Calm   6.4 km/h 93 % 0.0 mm 72 W/m2
09:50 10.2 °C 9.2 °C 997.2 hPa SSE 1.6 km/h 11.3 km/h 94 % 0.0 mm 95 W/m2
09:55 10.3 °C 9.4 °C 996.8 hPa SE 3.2 km/h 8.0 km/h 94 % 0.0 mm 202 W/m2
10:00 11.1 °C 10.3 °C 996.8 hPa SSE 4.8 km/h 11.3 km/h 95 % 0.0 mm 575 W/m2
10:05 11.7 °C 10.7 °C 996.8 hPa Calm   11.3 km/h 94 % 0.0 mm 547 W/m2
10:10 12.2 °C 11.1 °C 996.5 hPa South 4.8 km/h 8.0 km/h 93 % 0.0 mm 487 W/m2
10:20 12.9 °C 11.6 °C 996.8 hPa SSW 3.2 km/h 9.7 km/h 92 % 0.0 mm 436 W/m2
10:25 13.0 °C 11.6 °C 997.2 hPa South 4.8 km/h 12.9 km/h 91 % 0.0 mm 244 W/m2
10:35 13.8 °C 12.6 °C 997.2 hPa SE 6.4 km/h 11.3 km/h 92 % 0.0 mm 754 W/m2
10:40 14.2 °C 12.6 °C 997.2 hPa SSW 6.4 km/h 12.9 km/h 90 % 0.0 mm 327 W/m2
10:45 14.1 °C 12.1 °C 997.2 hPa South 3.2 km/h 14.5 km/h 88 % 0.0 mm 246 W/m2
10:50 14.0 °C 12.0 °C 997.2 hPa SSW 4.8 km/h 14.5 km/h 88 % 0.0 mm 213 W/m2
10:55 13.8 °C 11.7 °C 997.2 hPa SSW 11.3 km/h 14.5 km/h 87 % 0.0 mm 274 W/m2
11:00 13.8 °C 11.5 °C 997.2 hPa South 6.4 km/h 14.5 km/h 86 % 0.0 mm 234 W/m2
11:05 13.9 °C 11.8 °C 997.2 hPa SE 1.6 km/h 11.3 km/h 87 % 0.0 mm 594 W/m2
11:10 14.2 °C 11.7 °C 996.8 hPa SSW 9.7 km/h 12.9 km/h 85 % 0.0 mm 274 W/m2
11:20 14.1 °C 11.4 °C 997.2 hPa Calm   11.3 km/h 84 % 0.0 mm 148 W/m2
11:25 13.6 °C 10.8 °C 997.2 hPa SW 6.4 km/h 11.3 km/h 83 % 0.0 mm 134 W/m2
11:30 13.4 °C 10.9 °C 996.8 hPa South 3.2 km/h 11.3 km/h 85 % 0.0 mm 109 W/m2
11:35 13.2 °C 10.9 °C 997.2 hPa South 8.0 km/h 11.3 km/h 86 % 0.0 mm 79 W/m2
11:40 13.1 °C 10.8 °C 997.2 hPa South 6.4 km/h 12.9 km/h 86 % 0.0 mm 77 W/m2
11:45 12.9 °C 10.7 °C 997.2 hPa SSE 8.0 km/h 14.5 km/h 86 % 0.0 mm 109 W/m2
11:50 12.9 °C 10.7 °C 996.8 hPa South 6.4 km/h 14.5 km/h 86 % 0.0 mm 209 W/m2
11:55 13.2 °C 10.8 °C 996.8 hPa SSE 8.0 km/h 12.9 km/h 85 % 0.0 mm 260 W/m2
12:05 13.1 °C 10.5 °C 996.8 hPa South 4.8 km/h 14.5 km/h 84 % 0.0 mm 186 W/m2
12:10 13.1 °C 10.4 °C 996.8 hPa SSW 6.4 km/h 12.9 km/h 84 % 0.0 mm 130 W/m2
12:15 12.9 °C 10.2 °C 996.8 hPa South 8.0 km/h 14.5 km/h 84 % 0.0 mm 77 W/m2
12:20 12.7 °C 10.3 °C 996.8 hPa South 9.7 km/h 14.5 km/h 85 % 0.0 mm 60 W/m2
12:25 12.6 °C 10.3 °C 996.8 hPa SSE 3.2 km/h 14.5 km/h 86 % 0.0 mm 63 W/m2
12:30 12.4 °C 10.3 °C 996.8 hPa South 6.4 km/h 12.9 km/h 87 % 0.0 mm 156 W/m2
12:35 12.7 °C 10.6 °C 996.8 hPa South 3.2 km/h 9.7 km/h 87 % 0.0 mm 221 W/m2
12:40 12.9 °C 10.7 °C 996.8 hPa Calm   9.7 km/h 86 % 0.0 mm 167 W/m2
12:50 12.9 °C 10.4 °C 996.8 hPa South 6.4 km/h 12.9 km/h 85 % 0.0 mm 90 W/m2
12:55 12.8 °C 10.5 °C 996.8 hPa SSW 4.8 km/h 12.9 km/h 86 % 0.0 mm 109 W/m2
13:00 12.8 °C 10.5 °C 996.8 hPa South 8.0 km/h 14.5 km/h 86 % 0.0 mm 141 W/m2
13:05 12.9 °C 10.4 °C 996.8 hPa SSW 11.3 km/h 16.1 km/h 85 % 0.0 mm 69 W/m2
13:10 12.9 °C 10.2 °C 996.5 hPa SSE 4.8 km/h 16.1 km/h 84 % 0.0 mm 47 W/m2
13:15 12.8 °C 10.1 °C 996.5 hPa SSW 3.2 km/h 12.9 km/h 84 % 0.0 mm 54 W/m2
13:20 12.7 °C 10.3 °C 996.5 hPa SSW 4.8 km/h 12.9 km/h 85 % 0.0 mm 69 W/m2
13:25 12.6 °C 10.3 °C 996.8 hPa SW 9.7 km/h 12.9 km/h 86 % 0.0 mm 40 W/m2
13:35 11.2 °C 9.0 °C 997.2 hPa West 8.0 km/h 25.7 km/h 86 % 0.0 mm 47 W/m2
13:40 10.5 °C 8.8 °C 997.2 hPa WNW 4.8 km/h 25.7 km/h 89 % 0.0 mm 46 W/m2
13:45 10.2 °C 8.8 °C 997.2 hPa WNW 8.0 km/h 20.9 km/h 91 % 0.3 mm 65 W/m2
13:50 10.1 °C 8.8 °C 997.2 hPa WSW 12.9 km/h 19.3 km/h 92 % 0.5 mm 44 W/m2
13:55 9.9 °C 8.7 °C 997.2 hPa WNW 8.0 km/h 27.4 km/h 92 % 1.0 mm 54 W/m2
14:00 9.7 °C 8.4 °C 997.2 hPa West 12.9 km/h 41.8 km/h 92 % 1.5 mm 120 W/m2
14:05 9.4 °C 8.2 °C 997.2 hPa WSW 20.9 km/h 41.8 km/h 92 % 1.8 mm 120 W/m2
14:10 9.4 °C 8.3 °C 997.2 hPa WSW 9.7 km/h 32.2 km/h 93 % 2.0 mm 72 W/m2
14:20 9.4 °C 8.4 °C 996.8 hPa WSW 9.7 km/h 29.0 km/h 93 % 2.8 mm 54 W/m2
14:25 9.3 °C 8.2 °C 997.2 hPa SW 12.9 km/h 29.0 km/h 93 % 3.3 mm 51 W/m2
14:30 9.3 °C 8.2 °C 997.2 hPa West 12.9 km/h 25.7 km/h 93 % 3.3 mm 53 W/m2
14:35 9.2 °C 8.1 °C 997.5 hPa WSW 14.5 km/h 32.2 km/h 93 % 3.3 mm 69 W/m2
14:45 9.3 °C 8.2 °C 997.5 hPa West 11.3 km/h 22.5 km/h 93 % 3.3 mm 77 W/m2
14:50 9.3 °C 8.2 °C 997.2 hPa WSW 6.4 km/h 22.5 km/h 93 % 3.3 mm 91 W/m2
14:55 9.3 °C 8.3 °C 997.2 hPa SSW 6.4 km/h 22.5 km/h 93 % 2.3 mm 97 W/m2
15:05 9.6 °C 8.5 °C 997.5 hPa SSW 4.8 km/h 17.7 km/h 93 % 1.8 mm 76 W/m2
15:10 9.7 °C 8.6 °C 997.5 hPa SSW 4.8 km/h 17.7 km/h 93 % 1.5 mm 91 W/m2
15:15 9.9 °C 8.8 °C 997.5 hPa SW 3.2 km/h 14.5 km/h 93 % 1.5 mm 72 W/m2
15:20 9.9 °C 8.9 °C 997.2 hPa South 8.0 km/h 16.1 km/h 93 % 0.8 mm 86 W/m2
15:25 10.1 °C 9.0 °C 997.2 hPa SSW 4.8 km/h 16.1 km/h 93 % 0.5 mm 148 W/m2
15:30 10.3 °C 9.3 °C 997.5 hPa SSW 6.4 km/h 16.1 km/h 93 % 0.3 mm 156 W/m2
15:35 10.4 °C 9.4 °C 997.5 hPa SW 14.5 km/h 16.1 km/h 93 % 0.3 mm 199 W/m2
15:40 11.1 °C 10.0 °C 997.5 hPa SW 16.1 km/h 20.9 km/h 93 % 0.3 mm 891 W/m2
15:50 12.6 °C 10.8 °C 997.5 hPa WSW 17.7 km/h 33.8 km/h 89 % 0.0 mm 900 W/m2
15:55 12.3 °C 10.0 °C 997.9 hPa WSW 25.7 km/h 45.1 km/h 86 % 0.0 mm 88 W/m2
16:00 10.7 °C 8.3 °C 997.9 hPa WSW 22.5 km/h 45.1 km/h 85 % 0.5 mm 153 W/m2
16:05 10.1 °C 8.5 °C 997.9 hPa SW 14.5 km/h 30.6 km/h 90 % 0.8 mm 323 W/m2
16:10 10.4 °C 9.1 °C 997.9 hPa WSW 27.4 km/h 27.4 km/h 92 % 0.8 mm 345 W/m2
16:15 10.6 °C 9.2 °C 997.9 hPa SW 11.3 km/h 35.4 km/h 91 % 0.8 mm 357 W/m2
16:20 10.9 °C 9.3 °C 997.9 hPa SW 9.7 km/h 35.4 km/h 90 % 0.8 mm 315 W/m2
16:25 11.2 °C 9.6 °C 997.9 hPa WSW 27.4 km/h 27.4 km/h 90 % 0.8 mm 380 W/m2
16:35 11.3 °C 9.2 °C 997.9 hPa West 11.3 km/h 32.2 km/h 87 % 0.8 mm 396 W/m2
16:40 11.6 °C 9.2 °C 998.2 hPa WNW 11.3 km/h 37.0 km/h 85 % 0.8 mm 341 W/m2
16:45 11.4 °C 8.8 °C 998.2 hPa West 27.4 km/h 41.8 km/h 84 % 0.8 mm 350 W/m2
16:50 11.5 °C 8.7 °C 998.2 hPa SW 9.7 km/h 41.8 km/h 83 % 0.8 mm 494 W/m2
16:55 11.9 °C 9.3 °C 998.2 hPa WSW 8.0 km/h 38.6 km/h 84 % 0.8 mm 823 W/m2
17:00 11.3 °C 8.2 °C 998.2 hPa WSW 19.3 km/h 40.2 km/h 81 % 0.5 mm 209 W/m2
17:05 10.6 °C 7.7 °C 998.5 hPa West 25.7 km/h 40.2 km/h 82 % 0.0 mm 403 W/m2
17:10 10.7 °C 8.3 °C 998.2 hPa SW 6.4 km/h 40.2 km/h 85 % 0.0 mm 410 W/m2
17:20 11.8 °C 8.9 °C 998.2 hPa West 17.7 km/h 35.4 km/h 82 % 0.0 mm 619 W/m2
17:25 11.7 °C 8.2 °C 998.2 hPa West 9.7 km/h 37.0 km/h 79 % 0.0 mm 487 W/m2
17:30 11.9 °C 8.4 °C 998.2 hPa WSW 16.1 km/h 37.0 km/h 79 % 0.0 mm 596 W/m2
17:35 12.0 °C 7.9 °C 998.2 hPa WSW 22.5 km/h 41.8 km/h 76 % 0.0 mm 563 W/m2
17:40 12.1 °C 7.8 °C 998.5 hPa West 22.5 km/h 41.8 km/h 75 % 0.0 mm 543 W/m2
17:45 12.1 °C 7.6 °C 998.5 hPa WSW 8.0 km/h 37.0 km/h 74 % 0.0 mm 527 W/m2
17:50 12.1 °C 8.0 °C 998.5 hPa West 14.5 km/h 37.0 km/h 76 % 0.0 mm 515 W/m2
17:55 12.3 °C 8.0 °C 998.5 hPa SW 6.4 km/h 33.8 km/h 75 % 0.0 mm 527 W/m2
18:05 12.2 °C 8.3 °C 998.5 hPa WSW 24.1 km/h 27.4 km/h 77 % 0.0 mm 487 W/m2
18:10 12.1 °C 7.4 °C 998.5 hPa SW 8.0 km/h 35.4 km/h 73 % 0.0 mm 461 W/m2
18:15 11.9 °C 7.6 °C 998.5 hPa WSW 14.5 km/h 35.4 km/h 75 % 0.0 mm 410 W/m2
18:20 11.9 °C 7.8 °C 998.2 hPa WSW 4.8 km/h 35.4 km/h 76 % 0.0 mm 353 W/m2
18:25 11.8 °C 7.9 °C 998.2 hPa NW 20.9 km/h 35.4 km/h 77 % 0.0 mm 350 W/m2
18:30 12.0 °C 8.3 °C 998.2 hPa WSW 17.7 km/h 33.8 km/h 78 % 0.0 mm 422 W/m2
18:35 12.1 °C 8.4 °C 998.2 hPa WSW 12.9 km/h 33.8 km/h 78 % 0.0 mm 476 W/m2
18:40 12.3 °C 8.2 °C 998.2 hPa WNW 14.5 km/h 30.6 km/h 76 % 0.0 mm 155 W/m2
18:50 11.8 °C 8.3 °C 998.2 hPa WSW 9.7 km/h 38.6 km/h 79 % 0.0 mm 304 W/m2
18:55 12.0 °C 8.3 °C 998.2 hPa WSW 16.1 km/h 38.6 km/h 78 % 0.0 mm 283 W/m2
19:00 11.4 °C 7.7 °C 998.2 hPa SW 14.5 km/h 30.6 km/h 78 % 0.0 mm 127 W/m2
19:05 10.6 °C 7.4 °C 998.2 hPa SW 4.8 km/h 30.6 km/h 81 % 0.5 mm 102 W/m2
19:10 10.2 °C 7.9 °C 998.2 hPa WSW 8.0 km/h 30.6 km/h 86 % 0.5 mm 74 W/m2
19:15 10.2 °C 8.3 °C 998.2 hPa WSW 11.3 km/h 30.6 km/h 88 % 0.5 mm 178 W/m2
19:20 10.3 °C 8.6 °C 997.9 hPa West 11.3 km/h 35.4 km/h 89 % 0.5 mm 410 W/m2
19:25 10.5 °C 8.3 °C 998.2 hPa West 11.3 km/h 37.0 km/h 86 % 0.5 mm 299 W/m2
19:35 10.1 °C 7.5 °C 998.2 hPa WNW 16.1 km/h 33.8 km/h 84 % 0.5 mm 74 W/m2
19:40 10.1 °C 7.5 °C 998.2 hPa WSW 12.9 km/h 33.8 km/h 84 % 0.5 mm 204 W/m2
19:45 10.1 °C 7.5 °C 998.2 hPa WSW 14.5 km/h 51.5 km/h 84 % 0.5 mm 37 W/m2
19:50 9.9 °C 7.5 °C 998.2 hPa SW 27.4 km/h 51.5 km/h 85 % 0.5 mm 91 W/m2
19:55 9.9 °C 7.9 °C 998.2 hPa WNW 8.0 km/h 32.2 km/h 87 % 0.5 mm 192 W/m2
20:00 10.1 °C 8.2 °C 998.2 hPa SSW 14.5 km/h 38.6 km/h 88 % 0.5 mm 77 W/m2
20:05 9.9 °C 7.8 °C 998.2 hPa WNW 8.0 km/h 38.6 km/h 87 % 0.0 mm 44 W/m2
20:10 9.9 °C 7.9 °C 998.2 hPa West 16.1 km/h 37.0 km/h 87 % 0.0 mm 58 W/m2
20:15 9.5 °C 7.1 °C 998.5 hPa West 16.1 km/h 37.0 km/h 85 % 0.0 mm 19 W/m2
20:20 9.3 °C 7.1 °C 998.9 hPa NW 17.7 km/h 43.4 km/h 86 % 0.0 mm 37 W/m2
20:25 9.4 °C 7.2 °C 998.9 hPa WNW 11.3 km/h 43.4 km/h 86 % 0.0 mm 25 W/m2
20:30 9.4 °C 7.4 °C 998.9 hPa West 20.9 km/h 37.0 km/h 87 % 0.0 mm 21 W/m2
20:35 9.4 °C 7.2 °C 999.2 hPa West 32.2 km/h 37.0 km/h 86 % 0.0 mm 14 W/m2
20:40 9.3 °C 6.8 °C 999.2 hPa West 29.0 km/h 37.0 km/h 84 % 0.0 mm 9 W/m2
20:45 9.3 °C 6.6 °C 999.5 hPa West 24.1 km/h 45.1 km/h 83 % 0.0 mm 9 W/m2
20:50 9.3 °C 6.4 °C 999.9 hPa NW 29.0 km/h 45.1 km/h 82 % 0.0 mm 18 W/m2
20:55 9.2 °C 6.3 °C 999.9 hPa West 22.5 km/h 43.4 km/h 82 % 0.0 mm 11 W/m2
21:05 9.2 °C 6.8 °C 1000.2 hPa WNW 20.9 km/h 37.0 km/h 85 % 0.3 mm 0 W/m2
21:10 9.0 °C 6.8 °C 1000.6 hPa WNW 20.9 km/h 38.6 km/h 86 % 0.3 mm 0 W/m2
21:15 8.8 °C 6.8 °C 1000.6 hPa WNW 12.9 km/h 38.6 km/h 87 % 0.3 mm 0 W/m2
21:20 8.7 °C 6.6 °C 1000.9 hPa NNW 16.1 km/h 33.8 km/h 87 % 0.3 mm 0 W/m2
21:25 8.7 °C 6.8 °C 1000.9 hPa WNW 9.7 km/h 37.0 km/h 88 % 0.3 mm 0 W/m2
21:30 8.7 °C 6.6 °C 1000.9 hPa West 19.3 km/h 40.2 km/h 87 % 0.3 mm 0 W/m2
21:35 8.6 °C 6.7 °C 1001.2 hPa West 25.7 km/h 40.2 km/h 88 % 0.3 mm 0 W/m2
21:40 8.6 °C 6.7 °C 1001.2 hPa WNW 25.7 km/h 32.2 km/h 88 % 0.3 mm 0 W/m2
21:50 8.6 °C 6.7 °C 1001.6 hPa West 24.1 km/h 38.6 km/h 88 % 0.5 mm 0 W/m2
21:55 8.7 °C 6.8 °C 1001.6 hPa West 16.1 km/h 37.0 km/h 88 % 0.5 mm 0 W/m2
22:00 8.6 °C 6.7 °C 1001.9 hPa West 19.3 km/h 37.0 km/h 88 % 0.5 mm 0 W/m2
22:05 8.3 °C 6.6 °C 1002.3 hPa West 9.7 km/h 33.8 km/h 89 % 0.5 mm 0 W/m2
22:10 8.2 °C 6.7 °C 1002.3 hPa WNW 14.5 km/h 33.8 km/h 90 % 0.8 mm 0 W/m2
22:15 7.9 °C 6.4 °C 1002.3 hPa WNW 14.5 km/h 32.2 km/h 90 % 1.0 mm 0 W/m2
22:20 7.7 °C 6.2 °C 1001.9 hPa WNW 9.7 km/h 32.2 km/h 90 % 1.0 mm 0 W/m2
22:25 7.7 °C 6.3 °C 1001.9 hPa NW 11.3 km/h 24.1 km/h 91 % 1.0 mm 0 W/m2
22:35 7.7 °C 6.3 °C 1002.3 hPa West 11.3 km/h 19.3 km/h 91 % 1.3 mm 0 W/m2
22:40 7.7 °C 6.3 °C 1002.6 hPa WNW 14.5 km/h 19.3 km/h 91 % 1.3 mm 0 W/m2
22:45 7.7 °C 6.3 °C 1002.6 hPa WNW 8.0 km/h 17.7 km/h 91 % 1.3 mm 0 W/m2
22:50 7.7 °C 6.3 °C 1002.6 hPa WNW 8.0 km/h 17.7 km/h 91 % 1.0 mm 0 W/m2
22:55 7.8 °C 6.6 °C 1002.9 hPa WNW 6.4 km/h 12.9 km/h 92 % 1.0 mm 0 W/m2
23:00 7.8 °C 6.6 °C 1002.9 hPa West 6.4 km/h 14.5 km/h 92 % 1.3 mm 0 W/m2
23:05 7.7 °C 6.5 °C 1003.3 hPa West 11.3 km/h 20.9 km/h 92 % 1.3 mm 0 W/m2
23:10 7.7 °C 6.4 °C 1003.3 hPa WNW 3.2 km/h 20.9 km/h 92 % 1.0 mm 0 W/m2
23:15 7.7 °C 6.4 °C 1003.3 hPa West 4.8 km/h 16.1 km/h 92 % 0.8 mm 0 W/m2
23:20 7.7 °C 6.7 °C 1003.3 hPa West 8.0 km/h 14.5 km/h 93 % 0.8 mm 0 W/m2
23:25 7.8 °C 6.8 °C 1003.3 hPa NNW 11.3 km/h 14.5 km/h 93 % 0.8 mm 0 W/m2
23:30 8.0 °C 6.9 °C 1003.3 hPa West 14.5 km/h 24.1 km/h 93 % 0.8 mm 0 W/m2
23:35 8.4 °C 7.5 °C 1003.6 hPa WSW 17.7 km/h 24.1 km/h 94 % 0.5 mm 0 W/m2
23:40 8.7 °C 7.6 °C 1003.6 hPa WNW 25.7 km/h 33.8 km/h 93 % 0.5 mm 0 W/m2
23:45 8.7 °C 7.4 °C 1003.6 hPa West 17.7 km/h 33.8 km/h 92 % 0.5 mm 0 W/m2
23:50 8.7 °C 7.4 °C 1003.6 hPa West 11.3 km/h 33.8 km/h 92 % 0.5 mm 0 W/m2
23:55 8.7 °C 7.3 °C 1003.6 hPa NW 16.1 km/h 27.4 km/h 91 % 0.5 mm 0 W/m2
Avec l'autorisation de Weather Underground - 1.5 mb